Airfield :
LOGIN :

Register | Disclaimer

   EN    FR    IT 

 










Legend :    VFR   Marginal VFR   IFR   Intensive IFR   Very Intensive IFR
Visi :
Ceiling :
>= 8 km
>= 3000ft
5 to 8 km
1000 to 3000 ft
1500m to 5 km
500 to 1000 ft
800 to 1500m
200 to 500 ft
< 800m
< 200 ft
Symbols :   Thunderstorms  Fog  Heavy snow  Heavy precipitations  Wind > 20 kt
SIGMETs :     Misc.  Thunderstorms  Icing  Turbulence  Mountain Waves  Volcanic Ashes






- Airport Elevation : 160 ft
- IATA code : FMO


EDDG - Münster Osnabrück Int.

CURRENT METAR :
  • 290950Z AUTO 22008KT 180V250 9999 -DZ BKN018 09/06 Q1015 NOSIG

EXPIRED METARs :
  • 290920Z AUTO 20007KT 170V230 9999 OVC021 09/05 Q1015 NOSIG
  • 290850Z AUTO 20005KT 170V230 9999 OVC021 08/05 Q1015 NOSIG
  • 290820Z AUTO 19006KT 150V230 9999 OVC022 07/04 Q1015 NOSIG
  • 290750Z AUTO 20006KT 160V220 9999 OVC021 07/04 Q1015 NOSIG

TAF COR TAF EDDG
Valid from the 29 at 06:00 until the 30 at 06:00 UTC


290548Z 2906/3006 18004KT 9999 BKN020
TEMPO 2906/2908 BKN012
BECMG 2910/2912 21010KT
BECMG 2915/2918 17005KT
TEMPO 2918/2921 RA
BECMG 3003/3005 22010KT



MET'MAP, your aeronautical weather chart ! - Copyright ORBIFLY December 2007 - Disclaimer

ORBIFLY MET'MAP TEAM :

Programming & Development : Alexandra Zaïnal
Original concept : Baudouin d'Aumeries
Technical & hardware support : Manuel Goepfert
Assistance : Marc-Olivier Méhu




SOURCES & CREDITS :

   NOAA